sensor_id;sensor_type;location;lat;lon;timestamp;temperature;humidity
57829;DHT22;43657;52.698;6.314;2022-11-25T00:01:48;6.70;99.90
57829;DHT22;43657;52.698;6.314;2022-11-25T00:04:14;6.70;99.90
57829;DHT22;43657;52.698;6.314;2022-11-25T00:06:39;6.70;99.90
57829;DHT22;43657;52.698;6.314;2022-11-25T00:09:08;6.70;99.90
57829;DHT22;43657;52.698;6.314;2022-11-25T00:11:36;6.80;99.90
57829;DHT22;43657;52.698;6.314;2022-11-25T00:14:02;6.80;99.90
57829;DHT22;43657;52.698;6.314;2022-11-25T00:16:28;6.80;99.90
57829;DHT22;43657;52.698;6.314;2022-11-25T00:18:55;6.80;99.90
57829;DHT22;43657;52.698;6.314;2022-11-25T00:21:26;6.80;99.90
57829;DHT22;43657;52.698;6.314;2022-11-25T00:23:56;6.90;99.90
57829;DHT22;43657;52.698;6.314;2022-11-25T00:26:24;6.90;99.90
57829;DHT22;43657;52.698;6.314;2022-11-25T00:28:50;6.90;99.90
57829;DHT22;43657;52.698;6.314;2022-11-25T00:31:21;6.90;99.90
57829;DHT22;43657;52.698;6.314;2022-11-25T00:33:48;6.90;99.90
57829;DHT22;43657;52.698;6.314;2022-11-25T00:36:25;6.90;99.90
57829;DHT22;43657;52.698;6.314;2022-11-25T00:38:59;6.90;99.90
57829;DHT22;43657;52.698;6.314;2022-11-25T00:41:26;6.90;99.90
57829;DHT22;43657;52.698;6.314;2022-11-25T00:44:14;6.90;99.90
57829;DHT22;43657;52.698;6.314;2022-11-25T00:46:59;6.90;99.90
57829;DHT22;43657;52.698;6.314;2022-11-25T00:49:25;6.90;99.90
57829;DHT22;43657;52.698;6.314;2022-11-25T00:51:51;6.90;99.90
57829;DHT22;43657;52.698;6.314;2022-11-25T00:54:16;6.90;99.90
57829;DHT22;43657;52.698;6.314;2022-11-25T00:56:42;6.90;99.90
57829;DHT22;43657;52.698;6.314;2022-11-25T00:59:08;6.90;99.90
57829;DHT22;43657;52.698;6.314;2022-11-25T01:01:34;6.90;99.90
57829;DHT22;43657;52.698;6.314;2022-11-25T01:04:00;6.90;99.90
57829;DHT22;43657;52.698;6.314;2022-11-25T01:06:26;6.90;99.90
57829;DHT22;43657;52.698;6.314;2022-11-25T01:08:52;6.90;99.90
57829;DHT22;43657;52.698;6.314;2022-11-25T01:11:19;7.00;99.90
57829;DHT22;43657;52.698;6.314;2022-11-25T01:13:46;7.00;99.90
57829;DHT22;43657;52.698;6.314;2022-11-25T01:16:17;7.00;99.90
57829;DHT22;43657;52.698;6.314;2022-11-25T01:18:44;7.00;99.90
57829;DHT22;43657;52.698;6.314;2022-11-25T01:21:22;7.00;99.90
57829;DHT22;43657;52.698;6.314;2022-11-25T01:23:48;7.00;99.90
57829;DHT22;43657;52.698;6.314;2022-11-25T01:26:17;7.10;99.90
57829;DHT22;43657;52.698;6.314;2022-11-25T01:28:44;7.10;99.90
57829;DHT22;43657;52.698;6.314;2022-11-25T01:31:12;7.10;99.90
57829;DHT22;43657;52.698;6.314;2022-11-25T01:33:39;7.10;99.90
57829;DHT22;43657;52.698;6.314;2022-11-25T01:36:08;7.10;99.90
57829;DHT22;43657;52.698;6.314;2022-11-25T01:38:34;7.10;99.90
57829;DHT22;43657;52.698;6.314;2022-11-25T01:41:00;7.10;99.90
57829;DHT22;43657;52.698;6.314;2022-11-25T01:43:27;7.10;99.90
57829;DHT22;43657;52.698;6.314;2022-11-25T01:46:21;7.10;99.90
57829;DHT22;43657;52.698;6.314;2022-11-25T01:49:02;7.00;99.90
57829;DHT22;43657;52.698;6.314;2022-11-25T01:51:41;7.00;99.90
57829;DHT22;43657;52.698;6.314;2022-11-25T01:54:10;7.00;99.90
57829;DHT22;43657;52.698;6.314;2022-11-25T01:56:46;7.00;99.90
57829;DHT22;43657;52.698;6.314;2022-11-25T01:59:13;7.00;99.90
57829;DHT22;43657;52.698;6.314;2022-11-25T02:01:39;7.00;99.90
57829;DHT22;43657;52.698;6.314;2022-11-25T02:04:06;7.00;99.90
57829;DHT22;43657;52.698;6.314;2022-11-25T02:06:41;7.00;99.90
57829;DHT22;43657;52.698;6.314;2022-11-25T02:09:09;7.00;99.90
57829;DHT22;43657;52.698;6.314;2022-11-25T02:11:37;7.00;99.90
57829;DHT22;43657;52.698;6.314;2022-11-25T02:14:04;7.00;99.90
57829;DHT22;43657;52.698;6.314;2022-11-25T02:16:31;7.00;99.90
57829;DHT22;43657;52.698;6.314;2022-11-25T02:18:57;7.10;99.90
57829;DHT22;43657;52.698;6.314;2022-11-25T02:21:30;7.10;99.90
57829;DHT22;43657;52.698;6.314;2022-11-25T02:24:10;7.10;99.90
57829;DHT22;43657;52.698;6.314;2022-11-25T02:26:38;7.10;99.90
57829;DHT22;43657;52.698;6.314;2022-11-25T02:29:04;7.10;99.90
57829;DHT22;43657;52.698;6.314;2022-11-25T02:31:29;7.10;99.90
57829;DHT22;43657;52.698;6.314;2022-11-25T02:33:55;7.10;99.90
57829;DHT22;43657;52.698;6.314;2022-11-25T02:36:21;7.10;99.90
57829;DHT22;43657;52.698;6.314;2022-11-25T02:38:52;7.10;99.90
57829;DHT22;43657;52.698;6.314;2022-11-25T02:41:39;7.20;99.90
57829;DHT22;43657;52.698;6.314;2022-11-25T02:44:06;7.10;99.90
57829;DHT22;43657;52.698;6.314;2022-11-25T02:46:32;7.10;99.90
57829;DHT22;43657;52.698;6.314;2022-11-25T02:48:58;7.10;99.90
57829;DHT22;43657;52.698;6.314;2022-11-25T02:51:25;7.10;99.90
57829;DHT22;43657;52.698;6.314;2022-11-25T02:53:52;7.20;99.90
57829;DHT22;43657;52.698;6.314;2022-11-25T02:56:20;7.20;99.90
57829;DHT22;43657;52.698;6.314;2022-11-25T02:58:46;7.20;99.90
57829;DHT22;43657;52.698;6.314;2022-11-25T03:01:12;7.20;99.90
57829;DHT22;43657;52.698;6.314;2022-11-25T03:03:38;7.30;99.90
57829;DHT22;43657;52.698;6.314;2022-11-25T03:06:04;7.30;99.90
57829;DHT22;43657;52.698;6.314;2022-11-25T03:08:29;7.30;99.90
57829;DHT22;43657;52.698;6.314;2022-11-25T03:10:55;7.30;99.90
57829;DHT22;43657;52.698;6.314;2022-11-25T03:13:21;7.30;99.90
57829;DHT22;43657;52.698;6.314;2022-11-25T03:15:46;7.30;99.90
57829;DHT22;43657;52.698;6.314;2022-11-25T03:18:12;7.30;99.90
57829;DHT22;43657;52.698;6.314;2022-11-25T03:20:38;7.30;99.90
57829;DHT22;43657;52.698;6.314;2022-11-25T03:23:04;7.40;99.90
57829;DHT22;43657;52.698;6.314;2022-11-25T03:25:30;7.40;99.90
57829;DHT22;43657;52.698;6.314;2022-11-25T03:27:56;7.40;99.90
57829;DHT22;43657;52.698;6.314;2022-11-25T03:30:23;7.40;99.90
57829;DHT22;43657;52.698;6.314;2022-11-25T03:32:49;7.40;99.90
57829;DHT22;43657;52.698;6.314;2022-11-25T03:35:15;7.40;99.90
57829;DHT22;43657;52.698;6.314;2022-11-25T03:37:41;7.40;99.90
57829;DHT22;43657;52.698;6.314;2022-11-25T03:40:08;7.40;99.90
57829;DHT22;43657;52.698;6.314;2022-11-25T03:42:34;7.40;99.90
57829;DHT22;43657;52.698;6.314;2022-11-25T03:45:00;7.40;99.90
57829;DHT22;43657;52.698;6.314;2022-11-25T03:47:26;7.50;99.90
57829;DHT22;43657;52.698;6.314;2022-11-25T03:49:52;7.40;99.90
57829;DHT22;43657;52.698;6.314;2022-11-25T03:52:17;7.40;99.90
57829;DHT22;43657;52.698;6.314;2022-11-25T03:54:43;7.40;99.90
57829;DHT22;43657;52.698;6.314;2022-11-25T03:57:09;7.40;99.90
57829;DHT22;43657;52.698;6.314;2022-11-25T03:59:35;7.50;99.90
57829;DHT22;43657;52.698;6.314;2022-11-25T04:02:01;7.50;99.90
57829;DHT22;43657;52.698;6.314;2022-11-25T04:04:27;7.50;99.90
57829;DHT22;43657;52.698;6.314;2022-11-25T04:06:52;7.50;99.90
57829;DHT22;43657;52.698;6.314;2022-11-25T04:09:18;7.50;99.90
57829;DHT22;43657;52.698;6.314;2022-11-25T04:11:44;7.50;99.90
57829;DHT22;43657;52.698;6.314;2022-11-25T04:14:29;7.50;99.90
57829;DHT22;43657;52.698;6.314;2022-11-25T04:16:55;7.50;99.90
57829;DHT22;43657;52.698;6.314;2022-11-25T04:19:20;7.50;99.90
57829;DHT22;43657;52.698;6.314;2022-11-25T04:21:46;7.50;99.90
57829;DHT22;43657;52.698;6.314;2022-11-25T04:24:11;7.50;99.90
57829;DHT22;43657;52.698;6.314;2022-11-25T04:26:37;7.50;99.90
57829;DHT22;43657;52.698;6.314;2022-11-25T04:29:03;7.50;99.90
57829;DHT22;43657;52.698;6.314;2022-11-25T04:31:28;7.50;99.90
57829;DHT22;43657;52.698;6.314;2022-11-25T04:33:54;7.50;99.90
57829;DHT22;43657;52.698;6.314;2022-11-25T04:36:19;7.50;99.90
57829;DHT22;43657;52.698;6.314;2022-11-25T04:38:45;7.50;99.90
57829;DHT22;43657;52.698;6.314;2022-11-25T04:41:11;7.50;99.90
57829;DHT22;43657;52.698;6.314;2022-11-25T04:43:36;7.50;99.90
57829;DHT22;43657;52.698;6.314;2022-11-25T04:46:02;7.50;99.90
57829;DHT22;43657;52.698;6.314;2022-11-25T04:48:28;7.50;99.90
57829;DHT22;43657;52.698;6.314;2022-11-25T04:50:54;7.50;99.90
57829;DHT22;43657;52.698;6.314;2022-11-25T04:53:19;7.50;99.90
57829;DHT22;43657;52.698;6.314;2022-11-25T04:55:46;7.50;99.90
57829;DHT22;43657;52.698;6.314;2022-11-25T04:58:12;7.50;99.90
57829;DHT22;43657;52.698;6.314;2022-11-25T05:00:37;7.50;99.90
57829;DHT22;43657;52.698;6.314;2022-11-25T05:03:03;7.50;99.90
57829;DHT22;43657;52.698;6.314;2022-11-25T05:05:28;7.50;99.90
57829;DHT22;43657;52.698;6.314;2022-11-25T05:07:55;7.50;99.90
57829;DHT22;43657;52.698;6.314;2022-11-25T05:10:21;7.50;99.90
57829;DHT22;43657;52.698;6.314;2022-11-25T05:12:46;7.50;99.90
57829;DHT22;43657;52.698;6.314;2022-11-25T05:15:12;7.50;99.90
57829;DHT22;43657;52.698;6.314;2022-11-25T05:17:38;7.50;99.90
57829;DHT22;43657;52.698;6.314;2022-11-25T05:20:05;7.60;99.90
57829;DHT22;43657;52.698;6.314;2022-11-25T05:22:32;7.60;99.90
57829;DHT22;43657;52.698;6.314;2022-11-25T05:24:58;7.60;99.90
57829;DHT22;43657;52.698;6.314;2022-11-25T05:27:25;7.60;99.90
57829;DHT22;43657;52.698;6.314;2022-11-25T05:29:51;7.60;99.90
57829;DHT22;43657;52.698;6.314;2022-11-25T05:32:16;7.60;99.90
57829;DHT22;43657;52.698;6.314;2022-11-25T05:34:42;7.60;99.90
57829;DHT22;43657;52.698;6.314;2022-11-25T05:37:09;7.60;99.90
57829;DHT22;43657;52.698;6.314;2022-11-25T05:39:37;7.70;99.90
57829;DHT22;43657;52.698;6.314;2022-11-25T05:42:02;7.70;99.90
57829;DHT22;43657;52.698;6.314;2022-11-25T05:44:28;7.70;99.90
57829;DHT22;43657;52.698;6.314;2022-11-25T05:46:54;7.70;99.90
57829;DHT22;43657;52.698;6.314;2022-11-25T05:49:20;7.70;99.90
57829;DHT22;43657;52.698;6.314;2022-11-25T05:51:46;7.70;99.90
57829;DHT22;43657;52.698;6.314;2022-11-25T05:54:12;7.70;99.90
57829;DHT22;43657;52.698;6.314;2022-11-25T05:56:38;7.80;99.90
57829;DHT22;43657;52.698;6.314;2022-11-25T05:59:04;7.80;99.90
57829;DHT22;43657;52.698;6.314;2022-11-25T06:01:30;7.80;99.90
57829;DHT22;43657;52.698;6.314;2022-11-25T06:03:59;7.80;99.90
57829;DHT22;43657;52.698;6.314;2022-11-25T06:06:25;7.80;99.90
57829;DHT22;43657;52.698;6.314;2022-11-25T06:08:51;7.80;99.90
57829;DHT22;43657;52.698;6.314;2022-11-25T06:11:16;7.80;99.90
57829;DHT22;43657;52.698;6.314;2022-11-25T06:13:42;7.80;99.90
57829;DHT22;43657;52.698;6.314;2022-11-25T06:16:17;7.80;99.90
57829;DHT22;43657;52.698;6.314;2022-11-25T06:18:43;7.80;99.90
57829;DHT22;43657;52.698;6.314;2022-11-25T06:21:09;7.80;99.90
57829;DHT22;43657;52.698;6.314;2022-11-25T06:23:36;7.80;99.90
57829;DHT22;43657;52.698;6.314;2022-11-25T06:28:37;7.80;99.90
57829;DHT22;43657;52.698;6.314;2022-11-25T06:31:09;7.80;99.90
57829;DHT22;43657;52.698;6.314;2022-11-25T06:33:36;7.70;99.90
57829;DHT22;43657;52.698;6.314;2022-11-25T06:36:07;7.80;99.90
57829;DHT22;43657;52.698;6.314;2022-11-25T06:38:34;7.70;99.90
57829;DHT22;43657;52.698;6.314;2022-11-25T06:41:01;7.60;99.90
57829;DHT22;43657;52.698;6.314;2022-11-25T06:43:27;7.50;99.90
57829;DHT22;43657;52.698;6.314;2022-11-25T06:45:53;7.50;99.90
57829;DHT22;43657;52.698;6.314;2022-11-25T06:48:19;7.40;99.90
57829;DHT22;43657;52.698;6.314;2022-11-25T06:50:44;7.30;99.90
57829;DHT22;43657;52.698;6.314;2022-11-25T06:53:10;7.30;99.90
57829;DHT22;43657;52.698;6.314;2022-11-25T06:55:35;7.20;99.90
57829;DHT22;43657;52.698;6.314;2022-11-25T06:58:01;7.10;99.90
57829;DHT22;43657;52.698;6.314;2022-11-25T07:00:26;7.10;99.90
57829;DHT22;43657;52.698;6.314;2022-11-25T07:02:53;7.10;99.90
57829;DHT22;43657;52.698;6.314;2022-11-25T07:05:18;7.00;99.90
57829;DHT22;43657;52.698;6.314;2022-11-25T07:07:44;7.00;99.90
57829;DHT22;43657;52.698;6.314;2022-11-25T07:10:10;6.90;99.90
57829;DHT22;43657;52.698;6.314;2022-11-25T07:12:35;6.90;99.90
57829;DHT22;43657;52.698;6.314;2022-11-25T07:15:01;6.90;99.90
57829;DHT22;43657;52.698;6.314;2022-11-25T07:17:26;6.90;99.90
57829;DHT22;43657;52.698;6.314;2022-11-25T07:19:52;6.80;99.90
57829;DHT22;43657;52.698;6.314;2022-11-25T07:22:17;6.80;99.90
57829;DHT22;43657;52.698;6.314;2022-11-25T07:24:43;6.70;99.90
57829;DHT22;43657;52.698;6.314;2022-11-25T07:27:08;6.70;99.90
57829;DHT22;43657;52.698;6.314;2022-11-25T07:29:34;6.70;99.90
57829;DHT22;43657;52.698;6.314;2022-11-25T07:32:00;6.60;99.90
57829;DHT22;43657;52.698;6.314;2022-11-25T07:34:26;6.60;99.90
57829;DHT22;43657;52.698;6.314;2022-11-25T07:36:51;6.60;99.90
57829;DHT22;43657;52.698;6.314;2022-11-25T07:39:20;6.60;99.90
57829;DHT22;43657;52.698;6.314;2022-11-25T07:41:53;6.60;99.90
57829;DHT22;43657;52.698;6.314;2022-11-25T07:44:19;6.60;99.90
57829;DHT22;43657;52.698;6.314;2022-11-25T07:46:46;6.60;99.90
57829;DHT22;43657;52.698;6.314;2022-11-25T07:49:21;6.60;99.90
57829;DHT22;43657;52.698;6.314;2022-11-25T07:51:53;6.60;99.90
57829;DHT22;43657;52.698;6.314;2022-11-25T07:54:20;6.60;99.90
57829;DHT22;43657;52.698;6.314;2022-11-25T07:56:47;6.60;99.90
57829;DHT22;43657;52.698;6.314;2022-11-25T07:59:18;6.70;99.90
57829;DHT22;43657;52.698;6.314;2022-11-25T08:01:44;6.70;99.90
57829;DHT22;43657;52.698;6.314;2022-11-25T08:04:11;6.70;99.90
57829;DHT22;43657;52.698;6.314;2022-11-25T08:06:39;6.70;99.90
57829;DHT22;43657;52.698;6.314;2022-11-25T08:09:07;6.70;99.90
57829;DHT22;43657;52.698;6.314;2022-11-25T08:11:34;6.80;99.90
57829;DHT22;43657;52.698;6.314;2022-11-25T08:14:00;6.80;99.90
57829;DHT22;43657;52.698;6.314;2022-11-25T08:16:28;6.80;99.90
57829;DHT22;43657;52.698;6.314;2022-11-25T08:18:56;6.80;99.90
57829;DHT22;43657;52.698;6.314;2022-11-25T08:21:22;6.90;99.90
57829;DHT22;43657;52.698;6.314;2022-11-25T08:23:49;7.00;99.90
57829;DHT22;43657;52.698;6.314;2022-11-25T08:26:28;7.00;99.90
57829;DHT22;43657;52.698;6.314;2022-11-25T08:29:13;7.00;99.90
57829;DHT22;43657;52.698;6.314;2022-11-25T08:31:40;7.10;99.90
57829;DHT22;43657;52.698;6.314;2022-11-25T08:34:07;7.10;99.90
57829;DHT22;43657;52.698;6.314;2022-11-25T08:36:34;7.10;99.90
57829;DHT22;43657;52.698;6.314;2022-11-25T08:39:01;7.20;99.90
57829;DHT22;43657;52.698;6.314;2022-11-25T08:41:30;7.20;99.90
57829;DHT22;43657;52.698;6.314;2022-11-25T08:43:57;7.20;99.90
57829;DHT22;43657;52.698;6.314;2022-11-25T08:46:28;7.20;99.90
57829;DHT22;43657;52.698;6.314;2022-11-25T08:48:55;7.20;99.90
57829;DHT22;43657;52.698;6.314;2022-11-25T08:51:24;7.30;99.90
57829;DHT22;43657;52.698;6.314;2022-11-25T08:53:50;7.30;99.90
57829;DHT22;43657;52.698;6.314;2022-11-25T08:56:16;7.30;99.90
57829;DHT22;43657;52.698;6.314;2022-11-25T08:58:42;7.40;99.90
57829;DHT22;43657;52.698;6.314;2022-11-25T09:01:08;7.40;99.90
57829;DHT22;43657;52.698;6.314;2022-11-25T09:03:37;7.40;99.90
57829;DHT22;43657;52.698;6.314;2022-11-25T09:06:06;7.30;99.90
57829;DHT22;43657;52.698;6.314;2022-11-25T09:08:32;7.50;99.90
57829;DHT22;43657;52.698;6.314;2022-11-25T09:10:58;7.50;99.90
57829;DHT22;43657;52.698;6.314;2022-11-25T09:13:24;7.50;99.90
57829;DHT22;43657;52.698;6.314;2022-11-25T09:15:49;7.60;99.90
57829;DHT22;43657;52.698;6.314;2022-11-25T09:18:15;7.60;99.90
57829;DHT22;43657;52.698;6.314;2022-11-25T09:20:43;7.70;99.90
57829;DHT22;43657;52.698;6.314;2022-11-25T09:23:09;7.70;99.90
57829;DHT22;43657;52.698;6.314;2022-11-25T09:25:35;7.70;99.90
57829;DHT22;43657;52.698;6.314;2022-11-25T09:28:01;7.80;99.90
57829;DHT22;43657;52.698;6.314;2022-11-25T09:30:27;7.90;99.90
57829;DHT22;43657;52.698;6.314;2022-11-25T09:32:54;7.90;99.90
57829;DHT22;43657;52.698;6.314;2022-11-25T09:35:20;8.00;99.90
57829;DHT22;43657;52.698;6.314;2022-11-25T09:37:47;8.00;99.90
57829;DHT22;43657;52.698;6.314;2022-11-25T09:40:33;8.10;99.90
57829;DHT22;43657;52.698;6.314;2022-11-25T09:43:24;8.20;99.90
57829;DHT22;43657;52.698;6.314;2022-11-25T09:55:34;8.40;99.90
57829;DHT22;43657;52.698;6.314;2022-11-25T10:00:44;8.40;99.90
57829;DHT22;43657;52.698;6.314;2022-11-25T10:06:22;8.50;99.90
57829;DHT22;43657;52.698;6.314;2022-11-25T10:09:01;8.60;99.90
57829;DHT22;43657;52.698;6.314;2022-11-25T10:11:46;8.50;99.90
57829;DHT22;43657;52.698;6.314;2022-11-25T10:14:30;8.60;99.90
57829;DHT22;43657;52.698;6.314;2022-11-25T10:22:28;8.70;99.90
57829;DHT22;43657;52.698;6.314;2022-11-25T10:25:01;8.80;99.90
57829;DHT22;43657;52.698;6.314;2022-11-25T10:33:20;8.90;99.90
57829;DHT22;43657;52.698;6.314;2022-11-25T10:35:54;9.00;99.90
57829;DHT22;43657;52.698;6.314;2022-11-25T10:41:23;9.00;99.90
57829;DHT22;43657;52.698;6.314;2022-11-25T10:43:50;9.10;99.90
57829;DHT22;43657;52.698;6.314;2022-11-25T10:46:33;9.20;99.90
57829;DHT22;43657;52.698;6.314;2022-11-25T10:49:23;9.20;99.90
57829;DHT22;43657;52.698;6.314;2022-11-25T10:51:51;9.30;99.90
57829;DHT22;43657;52.698;6.314;2022-11-25T10:54:21;9.40;99.90
57829;DHT22;43657;52.698;6.314;2022-11-25T10:56:53;9.50;99.90
57829;DHT22;43657;52.698;6.314;2022-11-25T10:59:32;9.50;99.90
57829;DHT22;43657;52.698;6.314;2022-11-25T11:02:24;9.50;99.90
57829;DHT22;43657;52.698;6.314;2022-11-25T11:04:58;9.60;99.90
57829;DHT22;43657;52.698;6.314;2022-11-25T11:10:24;9.70;99.90
57829;DHT22;43657;52.698;6.314;2022-11-25T11:12:59;9.80;99.90
57829;DHT22;43657;52.698;6.314;2022-11-25T11:15:31;9.90;99.90
57829;DHT22;43657;52.698;6.314;2022-11-25T11:17:59;10.00;99.90
57829;DHT22;43657;52.698;6.314;2022-11-25T11:20:44;10.00;99.90
57829;DHT22;43657;52.698;6.314;2022-11-25T11:23:14;10.10;99.90
57829;DHT22;43657;52.698;6.314;2022-11-25T11:25:42;10.20;99.90
57829;DHT22;43657;52.698;6.314;2022-11-25T11:31:05;10.50;99.90
57829;DHT22;43657;52.698;6.314;2022-11-25T11:36:50;10.80;99.90
57829;DHT22;43657;52.698;6.314;2022-11-25T11:48:11;11.50;99.90
57829;DHT22;43657;52.698;6.314;2022-11-25T11:56:28;11.70;99.90
57829;DHT22;43657;52.698;6.314;2022-11-25T12:04:53;11.60;99.90
57829;DHT22;43657;52.698;6.314;2022-11-25T12:07:33;11.50;99.90
57829;DHT22;43657;52.698;6.314;2022-11-25T12:10:06;11.50;99.90
57829;DHT22;43657;52.698;6.314;2022-11-25T12:12:40;11.50;99.90
57829;DHT22;43657;52.698;6.314;2022-11-25T12:15:44;11.50;99.90
57829;DHT22;43657;52.698;6.314;2022-11-25T12:26:54;10.90;99.90
57829;DHT22;43657;52.698;6.314;2022-11-25T12:29:42;10.90;99.90
57829;DHT22;43657;52.698;6.314;2022-11-25T12:37:36;10.90;99.90
57829;DHT22;43657;52.698;6.314;2022-11-25T12:40:13;10.80;99.90
57829;DHT22;43657;52.698;6.314;2022-11-25T12:42:40;10.80;99.90
57829;DHT22;43657;52.698;6.314;2022-11-25T12:45:23;10.90;99.90
57829;DHT22;43657;52.698;6.314;2022-11-25T12:47:50;11.00;99.90
57829;DHT22;43657;52.698;6.314;2022-11-25T12:50:21;11.10;99.90
57829;DHT22;43657;52.698;6.314;2022-11-25T12:52:52;11.10;99.90
57829;DHT22;43657;52.698;6.314;2022-11-25T12:55:26;11.10;99.90
57829;DHT22;43657;52.698;6.314;2022-11-25T13:06:26;10.90;99.90
57829;DHT22;43657;52.698;6.314;2022-11-25T13:09:31;10.90;99.90
57829;DHT22;43657;52.698;6.314;2022-11-25T13:17:31;11.00;99.90
57829;DHT22;43657;52.698;6.314;2022-11-25T13:23:12;11.10;99.90
57829;DHT22;43657;52.698;6.314;2022-11-25T13:25:47;11.10;99.90
57829;DHT22;43657;52.698;6.314;2022-11-25T13:28:34;10.90;99.90
57829;DHT22;43657;52.698;6.314;2022-11-25T13:36:21;10.70;99.90
57829;DHT22;43657;52.698;6.314;2022-11-25T13:43:55;10.40;99.90
57829;DHT22;43657;52.698;6.314;2022-11-25T13:51:51;10.00;99.90
57829;DHT22;43657;52.698;6.314;2022-11-25T13:54:20;9.90;99.90
57829;DHT22;43657;52.698;6.314;2022-11-25T14:10:44;10.00;99.90
57829;DHT22;43657;52.698;6.314;2022-11-25T14:16:39;10.20;99.90
57829;DHT22;43657;52.698;6.314;2022-11-25T14:24:47;10.10;99.90
57829;DHT22;43657;52.698;6.314;2022-11-25T14:27:18;10.00;99.90
57829;DHT22;43657;52.698;6.314;2022-11-25T14:29:56;10.00;99.90
57829;DHT22;43657;52.698;6.314;2022-11-25T14:32:54;10.00;99.90
57829;DHT22;43657;52.698;6.314;2022-11-25T14:35:22;10.00;99.90
57829;DHT22;43657;52.698;6.314;2022-11-25T14:38:05;10.00;99.90
57829;DHT22;43657;52.698;6.314;2022-11-25T14:43:12;10.00;99.90
57829;DHT22;43657;52.698;6.314;2022-11-25T14:45:39;10.00;99.90
57829;DHT22;43657;52.698;6.314;2022-11-25T14:48:31;10.00;99.90
57829;DHT22;43657;52.698;6.314;2022-11-25T14:51:06;10.00;99.90
57829;DHT22;43657;52.698;6.314;2022-11-25T14:53:39;9.90;99.90
57829;DHT22;43657;52.698;6.314;2022-11-25T14:56:05;9.80;99.90
57829;DHT22;43657;52.698;6.314;2022-11-25T14:58:31;9.70;99.90
57829;DHT22;43657;52.698;6.314;2022-11-25T15:03:23;9.40;99.90
57829;DHT22;43657;52.698;6.314;2022-11-25T15:06:05;9.40;99.90
57829;DHT22;43657;52.698;6.314;2022-11-25T15:08:38;9.30;99.90
57829;DHT22;43657;52.698;6.314;2022-11-25T15:11:12;9.20;99.90
57829;DHT22;43657;52.698;6.314;2022-11-25T15:13:41;9.10;99.90
57829;DHT22;43657;52.698;6.314;2022-11-25T15:18:37;9.00;99.90
57829;DHT22;43657;52.698;6.314;2022-11-25T15:21:04;9.00;99.90
57829;DHT22;43657;52.698;6.314;2022-11-25T15:23:33;8.90;99.90
57829;DHT22;43657;52.698;6.314;2022-11-25T15:26:01;8.80;99.90
57829;DHT22;43657;52.698;6.314;2022-11-25T15:28:35;8.70;99.90
57829;DHT22;43657;52.698;6.314;2022-11-25T15:31:10;8.70;99.90
57829;DHT22;43657;52.698;6.314;2022-11-25T15:33:37;8.70;99.90
57829;DHT22;43657;52.698;6.314;2022-11-25T15:36:03;8.60;99.90
57829;DHT22;43657;52.698;6.314;2022-11-25T15:38:42;8.60;99.90
57829;DHT22;43657;52.698;6.314;2022-11-25T15:43:55;8.50;99.90
57829;DHT22;43657;52.698;6.314;2022-11-25T15:46:23;8.40;99.90
57829;DHT22;43657;52.698;6.314;2022-11-25T15:48:50;8.40;99.90
57829;DHT22;43657;52.698;6.314;2022-11-25T15:54:26;8.40;99.90
57829;DHT22;43657;52.698;6.314;2022-11-25T15:56:56;8.30;99.90
57829;DHT22;43657;52.698;6.314;2022-11-25T16:02:36;8.40;99.90
57829;DHT22;43657;52.698;6.314;2022-11-25T16:10:25;8.20;99.90
57829;DHT22;43657;52.698;6.314;2022-11-25T16:13:23;8.20;99.90
57829;DHT22;43657;52.698;6.314;2022-11-25T16:18:23;8.10;99.90
57829;DHT22;43657;52.698;6.314;2022-11-25T16:20:51;8.10;99.90
57829;DHT22;43657;52.698;6.314;2022-11-25T16:23:19;7.90;99.90
57829;DHT22;43657;52.698;6.314;2022-11-25T16:28:40;7.80;99.90
57829;DHT22;43657;52.698;6.314;2022-11-25T16:31:12;7.70;99.90
57829;DHT22;43657;52.698;6.314;2022-11-25T16:33:39;7.60;99.90
57829;DHT22;43657;52.698;6.314;2022-11-25T16:36:04;7.60;99.90
57829;DHT22;43657;52.698;6.314;2022-11-25T16:38:30;7.50;99.90
57829;DHT22;43657;52.698;6.314;2022-11-25T16:40:56;7.50;99.90
57829;DHT22;43657;52.698;6.314;2022-11-25T16:43:24;7.50;99.90
57829;DHT22;43657;52.698;6.314;2022-11-25T16:45:52;7.40;99.90
57829;DHT22;43657;52.698;6.314;2022-11-25T16:48:21;7.40;99.90
57829;DHT22;43657;52.698;6.314;2022-11-25T16:50:48;7.30;99.90
57829;DHT22;43657;52.698;6.314;2022-11-25T16:53:13;7.30;99.90
57829;DHT22;43657;52.698;6.314;2022-11-25T16:55:41;7.20;99.90
57829;DHT22;43657;52.698;6.314;2022-11-25T16:58:22;7.10;99.90
57829;DHT22;43657;52.698;6.314;2022-11-25T17:00:54;7.00;99.90
57829;DHT22;43657;52.698;6.314;2022-11-25T17:03:20;7.00;99.90
57829;DHT22;43657;52.698;6.314;2022-11-25T17:05:51;6.90;99.90
57829;DHT22;43657;52.698;6.314;2022-11-25T17:08:17;6.90;99.90
57829;DHT22;43657;52.698;6.314;2022-11-25T17:10:43;6.80;99.90
57829;DHT22;43657;52.698;6.314;2022-11-25T17:13:19;6.80;99.90
57829;DHT22;43657;52.698;6.314;2022-11-25T17:15:47;6.70;99.90
57829;DHT22;43657;52.698;6.314;2022-11-25T17:18:15;6.60;99.90
57829;DHT22;43657;52.698;6.314;2022-11-25T17:20:42;6.50;99.90
57829;DHT22;43657;52.698;6.314;2022-11-25T17:23:14;6.50;99.90
57829;DHT22;43657;52.698;6.314;2022-11-25T17:25:45;6.50;99.90
57829;DHT22;43657;52.698;6.314;2022-11-25T17:28:15;6.40;99.90
57829;DHT22;43657;52.698;6.314;2022-11-25T17:30:42;6.40;99.90
57829;DHT22;43657;52.698;6.314;2022-11-25T17:33:13;6.40;99.90
57829;DHT22;43657;52.698;6.314;2022-11-25T17:35:39;6.40;99.90
57829;DHT22;43657;52.698;6.314;2022-11-25T17:38:11;6.30;99.90
57829;DHT22;43657;52.698;6.314;2022-11-25T17:40:37;6.30;99.90
57829;DHT22;43657;52.698;6.314;2022-11-25T17:43:03;6.30;99.90
57829;DHT22;43657;52.698;6.314;2022-11-25T17:45:28;6.30;99.90
57829;DHT22;43657;52.698;6.314;2022-11-25T17:47:54;6.30;99.90
57829;DHT22;43657;52.698;6.314;2022-11-25T17:50:24;6.30;99.90
57829;DHT22;43657;52.698;6.314;2022-11-25T17:52:51;6.30;99.90
57829;DHT22;43657;52.698;6.314;2022-11-25T17:55:18;6.40;99.90
57829;DHT22;43657;52.698;6.314;2022-11-25T17:57:50;6.40;99.90
57829;DHT22;43657;52.698;6.314;2022-11-25T18:00:19;6.40;99.90
57829;DHT22;43657;52.698;6.314;2022-11-25T18:02:45;6.40;99.90
57829;DHT22;43657;52.698;6.314;2022-11-25T18:05:22;6.40;99.90
57829;DHT22;43657;52.698;6.314;2022-11-25T18:07:48;6.30;99.90
57829;DHT22;43657;52.698;6.314;2022-11-25T18:10:16;6.30;99.90
57829;DHT22;43657;52.698;6.314;2022-11-25T18:12:44;6.30;99.90
57829;DHT22;43657;52.698;6.314;2022-11-25T18:15:16;6.30;99.90
57829;DHT22;43657;52.698;6.314;2022-11-25T18:17:42;6.30;99.90
57829;DHT22;43657;52.698;6.314;2022-11-25T18:20:21;6.30;99.90
57829;DHT22;43657;52.698;6.314;2022-11-25T18:22:49;6.30;99.90
57829;DHT22;43657;52.698;6.314;2022-11-25T18:25:17;6.30;99.90
57829;DHT22;43657;52.698;6.314;2022-11-25T18:27:43;6.30;99.90
57829;DHT22;43657;52.698;6.314;2022-11-25T18:30:19;6.30;99.90
57829;DHT22;43657;52.698;6.314;2022-11-25T18:32:45;6.20;99.90
57829;DHT22;43657;52.698;6.314;2022-11-25T18:35:20;6.20;99.90
57829;DHT22;43657;52.698;6.314;2022-11-25T18:37:46;6.20;99.90